sensor_id;sensor_type;location;lat;lon;timestamp;temperature;humidity
52275;DHT22;38228;50.940;4.024;2022-10-16T00:00:35;14.00;99.90
52275;DHT22;38228;50.940;4.024;2022-10-16T00:03:02;14.00;99.90
52275;DHT22;38228;50.940;4.024;2022-10-16T00:05:28;14.00;99.90
52275;DHT22;38228;50.940;4.024;2022-10-16T00:07:53;14.00;99.90
52275;DHT22;38228;50.940;4.024;2022-10-16T00:10:19;14.00;99.90
52275;DHT22;38228;50.940;4.024;2022-10-16T00:12:45;14.10;99.90
52275;DHT22;38228;50.940;4.024;2022-10-16T00:15:11;14.00;99.90
52275;DHT22;38228;50.940;4.024;2022-10-16T00:17:37;14.10;99.90
52275;DHT22;38228;50.940;4.024;2022-10-16T00:20:03;14.10;99.90
52275;DHT22;38228;50.940;4.024;2022-10-16T00:22:28;14.10;99.90
52275;DHT22;38228;50.940;4.024;2022-10-16T00:24:54;14.00;99.90
52275;DHT22;38228;50.940;4.024;2022-10-16T00:27:20;14.10;99.90
52275;DHT22;38228;50.940;4.024;2022-10-16T00:29:50;14.00;99.90
52275;DHT22;38228;50.940;4.024;2022-10-16T00:32:16;14.00;99.90
52275;DHT22;38228;50.940;4.024;2022-10-16T00:34:42;13.90;99.90
52275;DHT22;38228;50.940;4.024;2022-10-16T00:37:08;13.80;99.90
52275;DHT22;38228;50.940;4.024;2022-10-16T00:39:34;13.80;99.90
52275;DHT22;38228;50.940;4.024;2022-10-16T00:41:59;13.90;99.90
52275;DHT22;38228;50.940;4.024;2022-10-16T00:44:43;13.90;99.90
52275;DHT22;38228;50.940;4.024;2022-10-16T00:47:11;13.80;99.90
52275;DHT22;38228;50.940;4.024;2022-10-16T00:49:38;13.80;99.90
52275;DHT22;38228;50.940;4.024;2022-10-16T00:52:05;13.80;99.90
52275;DHT22;38228;50.940;4.024;2022-10-16T00:54:32;13.80;99.90
52275;DHT22;38228;50.940;4.024;2022-10-16T00:57:00;13.80;99.90
52275;DHT22;38228;50.940;4.024;2022-10-16T00:59:29;13.80;99.90
52275;DHT22;38228;50.940;4.024;2022-10-16T01:01:56;13.80;99.90
52275;DHT22;38228;50.940;4.024;2022-10-16T01:04:23;13.80;99.90
52275;DHT22;38228;50.940;4.024;2022-10-16T01:18:16;13.60;99.90
52275;DHT22;38228;50.940;4.024;2022-10-16T01:20:44;13.70;99.90
52275;DHT22;38228;50.940;4.024;2022-10-16T01:26:14;13.60;99.90
52275;DHT22;38228;50.940;4.024;2022-10-16T01:28:52;13.60;99.90
52275;DHT22;38228;50.940;4.024;2022-10-16T01:31:20;13.60;99.90
52275;DHT22;38228;50.940;4.024;2022-10-16T01:33:51;13.60;99.90
52275;DHT22;38228;50.940;4.024;2022-10-16T01:36:25;13.50;99.90
52275;DHT22;38228;50.940;4.024;2022-10-16T01:38:54;13.50;99.90
52275;DHT22;38228;50.940;4.024;2022-10-16T01:41:26;13.50;99.90
52275;DHT22;38228;50.940;4.024;2022-10-16T01:44:00;13.50;99.90
52275;DHT22;38228;50.940;4.024;2022-10-16T01:46:27;13.60;99.90
52275;DHT22;38228;50.940;4.024;2022-10-16T01:48:55;13.50;99.90
52275;DHT22;38228;50.940;4.024;2022-10-16T01:51:21;13.40;99.90
52275;DHT22;38228;50.940;4.024;2022-10-16T01:53:51;13.50;99.90
52275;DHT22;38228;50.940;4.024;2022-10-16T01:56:18;13.50;99.90
52275;DHT22;38228;50.940;4.024;2022-10-16T01:58:53;13.40;99.90
52275;DHT22;38228;50.940;4.024;2022-10-16T02:01:23;13.40;99.90
52275;DHT22;38228;50.940;4.024;2022-10-16T02:03:52;13.30;99.90
52275;DHT22;38228;50.940;4.024;2022-10-16T02:06:19;13.40;99.90
52275;DHT22;38228;50.940;4.024;2022-10-16T02:08:45;13.40;99.90
52275;DHT22;38228;50.940;4.024;2022-10-16T02:11:11;13.40;99.90
52275;DHT22;38228;50.940;4.024;2022-10-16T02:13:41;13.50;99.90
52275;DHT22;38228;50.940;4.024;2022-10-16T02:16:11;13.60;99.90
52275;DHT22;38228;50.940;4.024;2022-10-16T02:18:38;13.50;99.90
52275;DHT22;38228;50.940;4.024;2022-10-16T02:21:23;13.40;99.90
52275;DHT22;38228;50.940;4.024;2022-10-16T02:23:51;13.40;99.90
52275;DHT22;38228;50.940;4.024;2022-10-16T02:29:10;13.30;99.90
52275;DHT22;38228;50.940;4.024;2022-10-16T02:31:41;13.40;99.90
52275;DHT22;38228;50.940;4.024;2022-10-16T02:34:09;13.40;99.90
52275;DHT22;38228;50.940;4.024;2022-10-16T02:36:38;13.40;99.90
52275;DHT22;38228;50.940;4.024;2022-10-16T02:39:05;13.50;99.90
52275;DHT22;38228;50.940;4.024;2022-10-16T02:41:31;13.50;99.90
52275;DHT22;38228;50.940;4.024;2022-10-16T02:43:57;13.30;99.90
52275;DHT22;38228;50.940;4.024;2022-10-16T02:46:23;13.30;99.90
52275;DHT22;38228;50.940;4.024;2022-10-16T02:48:49;13.40;99.90
52275;DHT22;38228;50.940;4.024;2022-10-16T02:51:14;13.40;99.90
52275;DHT22;38228;50.940;4.024;2022-10-16T02:53:40;13.30;99.90
52275;DHT22;38228;50.940;4.024;2022-10-16T02:56:05;13.20;99.90
52275;DHT22;38228;50.940;4.024;2022-10-16T02:58:31;13.30;99.90
52275;DHT22;38228;50.940;4.024;2022-10-16T03:00:57;13.30;99.90
52275;DHT22;38228;50.940;4.024;2022-10-16T03:03:22;13.30;99.90
52275;DHT22;38228;50.940;4.024;2022-10-16T03:05:48;13.30;99.90
52275;DHT22;38228;50.940;4.024;2022-10-16T03:08:14;13.40;99.90
52275;DHT22;38228;50.940;4.024;2022-10-16T03:10:40;13.40;99.90
52275;DHT22;38228;50.940;4.024;2022-10-16T03:13:05;13.50;99.90
52275;DHT22;38228;50.940;4.024;2022-10-16T03:15:31;13.60;99.90
52275;DHT22;38228;50.940;4.024;2022-10-16T03:18:00;13.60;99.90
52275;DHT22;38228;50.940;4.024;2022-10-16T03:20:26;13.50;99.90
52275;DHT22;38228;50.940;4.024;2022-10-16T03:22:52;13.50;99.90
52275;DHT22;38228;50.940;4.024;2022-10-16T03:25:17;13.40;99.90
52275;DHT22;38228;50.940;4.024;2022-10-16T03:27:43;13.40;99.90
52275;DHT22;38228;50.940;4.024;2022-10-16T03:30:09;13.40;99.90
52275;DHT22;38228;50.940;4.024;2022-10-16T03:32:35;13.40;99.90
52275;DHT22;38228;50.940;4.024;2022-10-16T03:35:00;13.50;99.90
52275;DHT22;38228;50.940;4.024;2022-10-16T03:37:26;13.40;99.90
52275;DHT22;38228;50.940;4.024;2022-10-16T03:39:52;13.40;99.90
52275;DHT22;38228;50.940;4.024;2022-10-16T03:42:18;13.50;99.90
52275;DHT22;38228;50.940;4.024;2022-10-16T03:44:44;13.60;99.90
52275;DHT22;38228;50.940;4.024;2022-10-16T03:47:10;13.60;99.90
52275;DHT22;38228;50.940;4.024;2022-10-16T03:49:35;13.50;99.90
52275;DHT22;38228;50.940;4.024;2022-10-16T03:52:01;13.60;99.90
52275;DHT22;38228;50.940;4.024;2022-10-16T03:54:27;13.60;99.90
52275;DHT22;38228;50.940;4.024;2022-10-16T03:56:52;13.40;99.90
52275;DHT22;38228;50.940;4.024;2022-10-16T03:59:18;13.50;99.90
52275;DHT22;38228;50.940;4.024;2022-10-16T04:01:43;13.40;99.90
52275;DHT22;38228;50.940;4.024;2022-10-16T04:04:09;13.40;99.90
52275;DHT22;38228;50.940;4.024;2022-10-16T04:06:35;13.40;99.90
52275;DHT22;38228;50.940;4.024;2022-10-16T04:09:00;13.40;99.90
52275;DHT22;38228;50.940;4.024;2022-10-16T04:11:26;13.40;99.90
52275;DHT22;38228;50.940;4.024;2022-10-16T04:13:52;13.50;99.90
52275;DHT22;38228;50.940;4.024;2022-10-16T04:16:18;13.40;99.90
52275;DHT22;38228;50.940;4.024;2022-10-16T04:18:44;13.40;99.90
52275;DHT22;38228;50.940;4.024;2022-10-16T04:21:09;13.50;99.90
52275;DHT22;38228;50.940;4.024;2022-10-16T04:23:35;13.50;99.90
52275;DHT22;38228;50.940;4.024;2022-10-16T04:26:01;13.50;99.90
52275;DHT22;38228;50.940;4.024;2022-10-16T04:28:27;13.60;99.90
52275;DHT22;38228;50.940;4.024;2022-10-16T04:30:53;13.60;99.90
52275;DHT22;38228;50.940;4.024;2022-10-16T04:33:18;13.60;99.90
52275;DHT22;38228;50.940;4.024;2022-10-16T04:35:44;13.60;99.90
52275;DHT22;38228;50.940;4.024;2022-10-16T04:38:10;13.50;99.90
52275;DHT22;38228;50.940;4.024;2022-10-16T04:40:35;13.40;99.90
52275;DHT22;38228;50.940;4.024;2022-10-16T04:43:04;13.40;99.90
52275;DHT22;38228;50.940;4.024;2022-10-16T04:45:29;13.30;99.90
52275;DHT22;38228;50.940;4.024;2022-10-16T04:47:59;13.20;99.90
52275;DHT22;38228;50.940;4.024;2022-10-16T04:50:25;13.20;99.90
52275;DHT22;38228;50.940;4.024;2022-10-16T04:52:50;13.20;99.90
52275;DHT22;38228;50.940;4.024;2022-10-16T04:55:16;13.20;99.90
52275;DHT22;38228;50.940;4.024;2022-10-16T04:57:41;13.20;99.90
52275;DHT22;38228;50.940;4.024;2022-10-16T05:00:08;13.20;99.90
52275;DHT22;38228;50.940;4.024;2022-10-16T05:02:34;13.20;99.90
52275;DHT22;38228;50.940;4.024;2022-10-16T05:04:59;13.20;99.90
52275;DHT22;38228;50.940;4.024;2022-10-16T05:07:25;13.10;99.90
52275;DHT22;38228;50.940;4.024;2022-10-16T05:09:51;13.20;99.90
52275;DHT22;38228;50.940;4.024;2022-10-16T05:12:17;13.20;99.90
52275;DHT22;38228;50.940;4.024;2022-10-16T05:14:42;13.20;99.90
52275;DHT22;38228;50.940;4.024;2022-10-16T05:17:08;13.10;99.90
52275;DHT22;38228;50.940;4.024;2022-10-16T05:19:34;13.10;99.90
52275;DHT22;38228;50.940;4.024;2022-10-16T05:21:59;13.10;99.90
52275;DHT22;38228;50.940;4.024;2022-10-16T05:24:25;13.00;99.90
52275;DHT22;38228;50.940;4.024;2022-10-16T05:26:51;13.10;99.90
52275;DHT22;38228;50.940;4.024;2022-10-16T05:29:17;13.10;99.90
52275;DHT22;38228;50.940;4.024;2022-10-16T05:31:42;13.10;99.90
52275;DHT22;38228;50.940;4.024;2022-10-16T05:34:08;13.00;99.90
52275;DHT22;38228;50.940;4.024;2022-10-16T05:36:33;13.00;99.90
52275;DHT22;38228;50.940;4.024;2022-10-16T05:38:59;12.90;99.90
52275;DHT22;38228;50.940;4.024;2022-10-16T05:41:25;12.90;99.90
52275;DHT22;38228;50.940;4.024;2022-10-16T05:43:52;12.90;99.90
52275;DHT22;38228;50.940;4.024;2022-10-16T05:46:17;13.00;99.90
52275;DHT22;38228;50.940;4.024;2022-10-16T05:48:43;13.10;99.90
52275;DHT22;38228;50.940;4.024;2022-10-16T05:51:12;13.10;99.90
52275;DHT22;38228;50.940;4.024;2022-10-16T05:53:39;13.20;99.90
52275;DHT22;38228;50.940;4.024;2022-10-16T05:56:06;13.30;99.90
52275;DHT22;38228;50.940;4.024;2022-10-16T05:58:34;13.30;99.90
52275;DHT22;38228;50.940;4.024;2022-10-16T06:01:06;13.40;99.90
52275;DHT22;38228;50.940;4.024;2022-10-16T06:03:33;13.40;99.90
52275;DHT22;38228;50.940;4.024;2022-10-16T06:05:58;13.40;99.90
52275;DHT22;38228;50.940;4.024;2022-10-16T06:08:24;13.30;99.90
52275;DHT22;38228;50.940;4.024;2022-10-16T06:11:00;13.30;99.90
52275;DHT22;38228;50.940;4.024;2022-10-16T06:13:26;13.30;99.90
52275;DHT22;38228;50.940;4.024;2022-10-16T06:15:52;13.40;99.90
52275;DHT22;38228;50.940;4.024;2022-10-16T06:18:17;13.40;99.90
52275;DHT22;38228;50.940;4.024;2022-10-16T06:20:43;13.40;99.90
52275;DHT22;38228;50.940;4.024;2022-10-16T06:23:08;13.40;99.90
52275;DHT22;38228;50.940;4.024;2022-10-16T06:25:34;13.40;99.90
52275;DHT22;38228;50.940;4.024;2022-10-16T06:28:00;13.50;99.90
52275;DHT22;38228;50.940;4.024;2022-10-16T06:30:25;13.40;99.90
52275;DHT22;38228;50.940;4.024;2022-10-16T06:32:51;13.40;99.90
52275;DHT22;38228;50.940;4.024;2022-10-16T06:35:16;13.40;99.90
52275;DHT22;38228;50.940;4.024;2022-10-16T06:37:42;13.40;99.90
52275;DHT22;38228;50.940;4.024;2022-10-16T06:40:08;13.40;99.90
52275;DHT22;38228;50.940;4.024;2022-10-16T06:42:33;13.50;99.90
52275;DHT22;38228;50.940;4.024;2022-10-16T06:44:59;13.50;99.90
52275;DHT22;38228;50.940;4.024;2022-10-16T06:47:25;13.50;99.90
52275;DHT22;38228;50.940;4.024;2022-10-16T06:49:50;13.50;99.90
52275;DHT22;38228;50.940;4.024;2022-10-16T06:52:16;13.50;99.90
52275;DHT22;38228;50.940;4.024;2022-10-16T06:54:42;13.50;99.90
52275;DHT22;38228;50.940;4.024;2022-10-16T06:57:07;13.50;99.90
52275;DHT22;38228;50.940;4.024;2022-10-16T06:59:33;13.50;99.90
52275;DHT22;38228;50.940;4.024;2022-10-16T07:01:58;13.50;99.90
52275;DHT22;38228;50.940;4.024;2022-10-16T07:04:24;13.50;99.90
52275;DHT22;38228;50.940;4.024;2022-10-16T07:06:50;13.50;99.90
52275;DHT22;38228;50.940;4.024;2022-10-16T07:09:17;13.60;99.90
52275;DHT22;38228;50.940;4.024;2022-10-16T07:11:42;13.70;99.90
52275;DHT22;38228;50.940;4.024;2022-10-16T07:14:20;13.70;99.90
52275;DHT22;38228;50.940;4.024;2022-10-16T07:16:47;13.70;99.90
52275;DHT22;38228;50.940;4.024;2022-10-16T07:19:13;13.70;99.90
52275;DHT22;38228;50.940;4.024;2022-10-16T07:21:41;13.80;99.90
52275;DHT22;38228;50.940;4.024;2022-10-16T07:24:11;13.80;99.90
52275;DHT22;38228;50.940;4.024;2022-10-16T07:26:38;13.80;99.90
52275;DHT22;38228;50.940;4.024;2022-10-16T07:29:06;13.90;99.90
52275;DHT22;38228;50.940;4.024;2022-10-16T07:31:32;13.90;99.90
52275;DHT22;38228;50.940;4.024;2022-10-16T07:33:59;13.90;99.90
52275;DHT22;38228;50.940;4.024;2022-10-16T07:36:25;14.10;99.90
52275;DHT22;38228;50.940;4.024;2022-10-16T07:38:50;14.10;99.90
52275;DHT22;38228;50.940;4.024;2022-10-16T07:41:18;14.20;99.90
52275;DHT22;38228;50.940;4.024;2022-10-16T07:43:50;14.30;99.90
52275;DHT22;38228;50.940;4.024;2022-10-16T07:46:17;14.40;99.90
52275;DHT22;38228;50.940;4.024;2022-10-16T07:48:44;14.40;99.90
52275;DHT22;38228;50.940;4.024;2022-10-16T07:51:14;14.40;99.90
52275;DHT22;38228;50.940;4.024;2022-10-16T07:53:40;14.50;99.90
52275;DHT22;38228;50.940;4.024;2022-10-16T07:56:06;14.50;99.90
52275;DHT22;38228;50.940;4.024;2022-10-16T07:58:33;14.50;99.90
52275;DHT22;38228;50.940;4.024;2022-10-16T08:01:04;14.60;99.90
52275;DHT22;38228;50.940;4.024;2022-10-16T08:03:29;14.70;99.90
52275;DHT22;38228;50.940;4.024;2022-10-16T08:05:57;14.70;99.90
52275;DHT22;38228;50.940;4.024;2022-10-16T08:08:23;14.80;99.90
52275;DHT22;38228;50.940;4.024;2022-10-16T08:10:49;14.90;99.90
52275;DHT22;38228;50.940;4.024;2022-10-16T08:13:15;15.00;99.90
52275;DHT22;38228;50.940;4.024;2022-10-16T08:15:42;15.00;99.90
52275;DHT22;38228;50.940;4.024;2022-10-16T08:18:09;15.00;99.90
52275;DHT22;38228;50.940;4.024;2022-10-16T08:20:34;15.00;99.90
52275;DHT22;38228;50.940;4.024;2022-10-16T08:23:00;15.10;99.90
52275;DHT22;38228;50.940;4.024;2022-10-16T08:25:26;15.20;99.90
52275;DHT22;38228;50.940;4.024;2022-10-16T08:27:52;15.30;99.90
52275;DHT22;38228;50.940;4.024;2022-10-16T08:30:20;15.30;99.90
52275;DHT22;38228;50.940;4.024;2022-10-16T08:32:46;15.40;99.90
52275;DHT22;38228;50.940;4.024;2022-10-16T08:35:13;15.40;99.90
52275;DHT22;38228;50.940;4.024;2022-10-16T08:37:39;15.40;99.90
52275;DHT22;38228;50.940;4.024;2022-10-16T08:40:06;15.50;99.90
52275;DHT22;38228;50.940;4.024;2022-10-16T08:42:58;15.60;99.90
52275;DHT22;38228;50.940;4.024;2022-10-16T08:48:27;15.50;99.90
52275;DHT22;38228;50.940;4.024;2022-10-16T08:50:54;15.50;99.90
52275;DHT22;38228;50.940;4.024;2022-10-16T08:53:28;15.50;99.90
52275;DHT22;38228;50.940;4.024;2022-10-16T08:55:55;15.60;99.90
52275;DHT22;38228;50.940;4.024;2022-10-16T08:58:23;15.70;99.90
52275;DHT22;38228;50.940;4.024;2022-10-16T09:00:56;15.70;99.90
52275;DHT22;38228;50.940;4.024;2022-10-16T09:08:56;16.00;99.90
52275;DHT22;38228;50.940;4.024;2022-10-16T09:14:42;16.10;99.90
52275;DHT22;38228;50.940;4.024;2022-10-16T09:17:20;16.10;99.90
52275;DHT22;38228;50.940;4.024;2022-10-16T09:19:52;16.20;99.90
52275;DHT22;38228;50.940;4.024;2022-10-16T09:22:22;16.20;99.90
52275;DHT22;38228;50.940;4.024;2022-10-16T09:24:51;16.30;99.90
52275;DHT22;38228;50.940;4.024;2022-10-16T09:27:17;16.40;99.90
52275;DHT22;38228;50.940;4.024;2022-10-16T09:29:43;16.40;99.90
52275;DHT22;38228;50.940;4.024;2022-10-16T09:32:14;16.50;99.90
52275;DHT22;38228;50.940;4.024;2022-10-16T09:34:48;16.60;99.90
52275;DHT22;38228;50.940;4.024;2022-10-16T09:37:17;16.70;99.90
52275;DHT22;38228;50.940;4.024;2022-10-16T09:39:49;16.70;99.90
52275;DHT22;38228;50.940;4.024;2022-10-16T09:44:48;16.80;99.90
52275;DHT22;38228;50.940;4.024;2022-10-16T09:47:18;16.90;99.90
52275;DHT22;38228;50.940;4.024;2022-10-16T09:49:58;16.90;99.90
52275;DHT22;38228;50.940;4.024;2022-10-16T09:52:28;16.90;99.90
52275;DHT22;38228;50.940;4.024;2022-10-16T09:54:56;17.10;99.90
52275;DHT22;38228;50.940;4.024;2022-10-16T09:57:23;17.10;99.90
52275;DHT22;38228;50.940;4.024;2022-10-16T09:59:54;17.20;99.90
52275;DHT22;38228;50.940;4.024;2022-10-16T10:02:31;17.30;99.90
52275;DHT22;38228;50.940;4.024;2022-10-16T10:04:59;17.40;99.90
52275;DHT22;38228;50.940;4.024;2022-10-16T10:07:32;17.20;99.90
52275;DHT22;38228;50.940;4.024;2022-10-16T10:09:59;17.10;99.90
52275;DHT22;38228;50.940;4.024;2022-10-16T10:12:30;17.10;99.90
52275;DHT22;38228;50.940;4.024;2022-10-16T10:15:07;17.10;99.90
52275;DHT22;38228;50.940;4.024;2022-10-16T10:17:44;17.20;99.90
52275;DHT22;38228;50.940;4.024;2022-10-16T10:22:48;17.40;99.90
52275;DHT22;38228;50.940;4.024;2022-10-16T10:38:11;17.50;99.90
52275;DHT22;38228;50.940;4.024;2022-10-16T10:41:09;17.60;99.90
52275;DHT22;38228;50.940;4.024;2022-10-16T10:43:36;17.60;99.90
52275;DHT22;38228;50.940;4.024;2022-10-16T10:46:08;17.60;99.90
52275;DHT22;38228;50.940;4.024;2022-10-16T10:54:34;18.00;99.90
52275;DHT22;38228;50.940;4.024;2022-10-16T10:57:10;18.00;99.90
52275;DHT22;38228;50.940;4.024;2022-10-16T11:00:03;18.20;99.90
52275;DHT22;38228;50.940;4.024;2022-10-16T11:02:41;18.30;99.90
52275;DHT22;38228;50.940;4.024;2022-10-16T11:08:10;18.20;99.90
52275;DHT22;38228;50.940;4.024;2022-10-16T11:10:57;18.30;99.90
52275;DHT22;38228;50.940;4.024;2022-10-16T11:13:38;18.20;99.90
52275;DHT22;38228;50.940;4.024;2022-10-16T11:16:17;18.20;99.90
52275;DHT22;38228;50.940;4.024;2022-10-16T11:21:19;18.60;99.90
52275;DHT22;38228;50.940;4.024;2022-10-16T11:23:55;18.60;99.90
52275;DHT22;38228;50.940;4.024;2022-10-16T11:26:32;18.50;99.90
52275;DHT22;38228;50.940;4.024;2022-10-16T11:29:02;18.60;99.90
52275;DHT22;38228;50.940;4.024;2022-10-16T11:31:40;18.40;99.90
52275;DHT22;38228;50.940;4.024;2022-10-16T11:34:20;18.40;99.90
52275;DHT22;38228;50.940;4.024;2022-10-16T11:39:42;18.60;99.90
52275;DHT22;38228;50.940;4.024;2022-10-16T11:42:25;18.80;99.90
52275;DHT22;38228;50.940;4.024;2022-10-16T11:45:41;18.90;99.90
52275;DHT22;38228;50.940;4.024;2022-10-16T11:48:20;18.80;99.90
52275;DHT22;38228;50.940;4.024;2022-10-16T11:51:19;18.80;99.90
52275;DHT22;38228;50.940;4.024;2022-10-16T11:54:16;18.90;99.90
52275;DHT22;38228;50.940;4.024;2022-10-16T11:56:45;19.00;99.90
52275;DHT22;38228;50.940;4.024;2022-10-16T11:59:26;19.00;99.90
52275;DHT22;38228;50.940;4.024;2022-10-16T12:02:23;19.00;99.90
52275;DHT22;38228;50.940;4.024;2022-10-16T12:04:51;19.10;99.90
52275;DHT22;38228;50.940;4.024;2022-10-16T12:07:24;19.10;99.90
52275;DHT22;38228;50.940;4.024;2022-10-16T12:09:50;19.10;99.90
52275;DHT22;38228;50.940;4.024;2022-10-16T12:12:37;19.20;99.90
52275;DHT22;38228;50.940;4.024;2022-10-16T12:15:19;19.30;99.90
52275;DHT22;38228;50.940;4.024;2022-10-16T12:17:46;19.20;99.90
52275;DHT22;38228;50.940;4.024;2022-10-16T12:22:51;19.40;99.90
52275;DHT22;38228;50.940;4.024;2022-10-16T12:25:34;19.50;99.90
52275;DHT22;38228;50.940;4.024;2022-10-16T12:28:01;19.50;99.90
52275;DHT22;38228;50.940;4.024;2022-10-16T12:30:30;19.50;99.90
52275;DHT22;38228;50.940;4.024;2022-10-16T12:33:02;19.70;99.90
52275;DHT22;38228;50.940;4.024;2022-10-16T12:35:32;19.60;99.90
52275;DHT22;38228;50.940;4.024;2022-10-16T12:40:43;19.60;99.90
52275;DHT22;38228;50.940;4.024;2022-10-16T12:43:46;19.50;99.90
52275;DHT22;38228;50.940;4.024;2022-10-16T12:48:42;19.40;99.90
52275;DHT22;38228;50.940;4.024;2022-10-16T12:51:23;19.60;99.90
52275;DHT22;38228;50.940;4.024;2022-10-16T12:59:25;19.80;99.90
52275;DHT22;38228;50.940;4.024;2022-10-16T13:10:59;20.40;99.90
52275;DHT22;38228;50.940;4.024;2022-10-16T13:19:55;20.20;99.90
52275;DHT22;38228;50.940;4.024;2022-10-16T13:27:55;20.10;99.90
52275;DHT22;38228;50.940;4.024;2022-10-16T13:30:37;20.00;99.90
52275;DHT22;38228;50.940;4.024;2022-10-16T13:35:35;20.30;99.90
52275;DHT22;38228;50.940;4.024;2022-10-16T13:38:25;20.40;99.90
52275;DHT22;38228;50.940;4.024;2022-10-16T13:40:57;20.50;99.90
52275;DHT22;38228;50.940;4.024;2022-10-16T13:46:05;20.40;99.90
52275;DHT22;38228;50.940;4.024;2022-10-16T13:48:33;20.40;99.90
52275;DHT22;38228;50.940;4.024;2022-10-16T13:51:10;20.50;99.90
52275;DHT22;38228;50.940;4.024;2022-10-16T13:53:37;20.50;99.90
52275;DHT22;38228;50.940;4.024;2022-10-16T13:56:05;20.40;99.90
52275;DHT22;38228;50.940;4.024;2022-10-16T13:58:31;20.30;99.90
52275;DHT22;38228;50.940;4.024;2022-10-16T14:01:03;20.10;99.90
52275;DHT22;38228;50.940;4.024;2022-10-16T14:03:31;20.20;99.90
52275;DHT22;38228;50.940;4.024;2022-10-16T14:06:03;20.30;99.90
52275;DHT22;38228;50.940;4.024;2022-10-16T14:08:31;20.40;99.90
52275;DHT22;38228;50.940;4.024;2022-10-16T14:10:59;20.50;99.90
52275;DHT22;38228;50.940;4.024;2022-10-16T14:13:38;20.50;99.90
52275;DHT22;38228;50.940;4.024;2022-10-16T14:16:09;20.80;99.90
52275;DHT22;38228;50.940;4.024;2022-10-16T14:18:37;20.80;99.90
52275;DHT22;38228;50.940;4.024;2022-10-16T14:21:12;20.90;99.90
52275;DHT22;38228;50.940;4.024;2022-10-16T14:23:39;21.00;99.90
52275;DHT22;38228;50.940;4.024;2022-10-16T14:28:35;21.10;99.90
52275;DHT22;38228;50.940;4.024;2022-10-16T14:31:02;21.20;99.90
52275;DHT22;38228;50.940;4.024;2022-10-16T14:33:40;21.10;99.90
52275;DHT22;38228;50.940;4.024;2022-10-16T14:36:13;21.20;99.90
52275;DHT22;38228;50.940;4.024;2022-10-16T14:38:48;21.10;99.90
52275;DHT22;38228;50.940;4.024;2022-10-16T14:41:15;20.80;99.90
52275;DHT22;38228;50.940;4.024;2022-10-16T14:43:42;20.60;99.90
52275;DHT22;38228;50.940;4.024;2022-10-16T14:46:18;20.50;99.90
52275;DHT22;38228;50.940;4.024;2022-10-16T14:48:46;20.50;99.90
52275;DHT22;38228;50.940;4.024;2022-10-16T14:51:17;20.60;99.90
52275;DHT22;38228;50.940;4.024;2022-10-16T14:53:44;20.40;99.90
52275;DHT22;38228;50.940;4.024;2022-10-16T14:56:22;20.50;99.90
52275;DHT22;38228;50.940;4.024;2022-10-16T14:58:50;20.30;99.90
52275;DHT22;38228;50.940;4.024;2022-10-16T15:01:16;20.10;99.90
52275;DHT22;38228;50.940;4.024;2022-10-16T15:03:42;19.90;99.90
52275;DHT22;38228;50.940;4.024;2022-10-16T15:06:12;19.80;99.90
52275;DHT22;38228;50.940;4.024;2022-10-16T15:08:38;19.70;99.90
52275;DHT22;38228;50.940;4.024;2022-10-16T15:11:04;19.60;99.90
52275;DHT22;38228;50.940;4.024;2022-10-16T15:13:30;19.70;99.90
52275;DHT22;38228;50.940;4.024;2022-10-16T15:15:56;19.90;99.90
52275;DHT22;38228;50.940;4.024;2022-10-16T15:18:21;19.80;99.90
52275;DHT22;38228;50.940;4.024;2022-10-16T15:20:49;19.80;99.90
52275;DHT22;38228;50.940;4.024;2022-10-16T15:23:17;19.80;99.90
52275;DHT22;38228;50.940;4.024;2022-10-16T15:25:46;19.80;99.90
52275;DHT22;38228;50.940;4.024;2022-10-16T15:28:13;19.90;99.90
52275;DHT22;38228;50.940;4.024;2022-10-16T15:30:39;19.80;99.90
52275;DHT22;38228;50.940;4.024;2022-10-16T15:33:09;20.00;99.90
52275;DHT22;38228;50.940;4.024;2022-10-16T15:35:36;19.80;99.90
52275;DHT22;38228;50.940;4.024;2022-10-16T15:38:02;19.60;99.90
52275;DHT22;38228;50.940;4.024;2022-10-16T15:40:27;19.50;99.90
52275;DHT22;38228;50.940;4.024;2022-10-16T15:42:53;19.50;99.90
52275;DHT22;38228;50.940;4.024;2022-10-16T15:45:19;19.50;99.90
52275;DHT22;38228;50.940;4.024;2022-10-16T15:47:45;19.70;99.90
52275;DHT22;38228;50.940;4.024;2022-10-16T15:50:13;19.50;99.90
52275;DHT22;38228;50.940;4.024;2022-10-16T15:52:40;19.30;99.90
52275;DHT22;38228;50.940;4.024;2022-10-16T15:55:11;19.10;99.90
52275;DHT22;38228;50.940;4.024;2022-10-16T15:57:37;19.10;99.90
52275;DHT22;38228;50.940;4.024;2022-10-16T16:00:06;19.20;99.90
52275;DHT22;38228;50.940;4.024;2022-10-16T16:02:32;19.20;99.90
52275;DHT22;38228;50.940;4.024;2022-10-16T16:04:58;19.30;99.90
52275;DHT22;38228;50.940;4.024;2022-10-16T16:07:24;19.30;99.90
52275;DHT22;38228;50.940;4.024;2022-10-16T16:09:49;19.10;99.90
52275;DHT22;38228;50.940;4.024;2022-10-16T16:12:15;19.00;99.90
52275;DHT22;38228;50.940;4.024;2022-10-16T16:14:41;19.10;99.90
52275;DHT22;38228;50.940;4.024;2022-10-16T16:17:06;19.00;99.90
52275;DHT22;38228;50.940;4.024;2022-10-16T16:19:33;19.10;99.90
52275;DHT22;38228;50.940;4.024;2022-10-16T16:21:58;18.90;99.90
52275;DHT22;38228;50.940;4.024;2022-10-16T16:24:24;18.60;99.90
52275;DHT22;38228;50.940;4.024;2022-10-16T16:26:49;18.40;99.90
52275;DHT22;38228;50.940;4.024;2022-10-16T16:29:15;18.40;99.90
52275;DHT22;38228;50.940;4.024;2022-10-16T16:31:42;18.30;99.90
52275;DHT22;38228;50.940;4.024;2022-10-16T16:34:08;18.30;99.90
52275;DHT22;38228;50.940;4.024;2022-10-16T16:36:34;18.30;99.90
52275;DHT22;38228;50.940;4.024;2022-10-16T16:39:00;18.40;99.90
52275;DHT22;38228;50.940;4.024;2022-10-16T16:41:28;18.20;99.90
52275;DHT22;38228;50.940;4.024;2022-10-16T16:43:55;18.10;99.90
52275;DHT22;38228;50.940;4.024;2022-10-16T16:46:26;18.00;99.90
52275;DHT22;38228;50.940;4.024;2022-10-16T16:48:52;18.20;99.90
52275;DHT22;38228;50.940;4.024;2022-10-16T16:51:20;18.10;99.90
52275;DHT22;38228;50.940;4.024;2022-10-16T16:53:49;18.00;99.90
52275;DHT22;38228;50.940;4.024;2022-10-16T16:56:15;17.90;99.90
52275;DHT22;38228;50.940;4.024;2022-10-16T16:58:40;17.90;99.90
52275;DHT22;38228;50.940;4.024;2022-10-16T17:01:08;17.80;99.90
52275;DHT22;38228;50.940;4.024;2022-10-16T17:03:34;17.70;99.90
52275;DHT22;38228;50.940;4.024;2022-10-16T17:06:06;17.60;99.90
52275;DHT22;38228;50.940;4.024;2022-10-16T17:08:35;17.70;99.90
52275;DHT22;38228;50.940;4.024;2022-10-16T17:11:02;17.70;99.90
52275;DHT22;38228;50.940;4.024;2022-10-16T17:13:31;17.70;99.90
52275;DHT22;38228;50.940;4.024;2022-10-16T17:15:57;17.80;99.90
52275;DHT22;38228;50.940;4.024;2022-10-16T17:18:23;17.70;99.90
52275;DHT22;38228;50.940;4.024;2022-10-16T17:20:50;17.70;99.90
52275;DHT22;38228;50.940;4.024;2022-10-16T17:23:17;17.60;99.90